sensor_id;sensor_type;location;lat;lon;timestamp;temperature;humidity
61201;DHT22;47065;52.898;6.992;2023-04-22T00:00:36;11.90;99.90
61201;DHT22;47065;52.898;6.992;2023-04-22T00:03:03;11.90;99.90
61201;DHT22;47065;52.898;6.992;2023-04-22T00:05:29;11.80;99.90
61201;DHT22;47065;52.898;6.992;2023-04-22T00:07:55;11.90;99.90
61201;DHT22;47065;52.898;6.992;2023-04-22T00:10:20;11.80;99.90
61201;DHT22;47065;52.898;6.992;2023-04-22T00:12:46;11.70;99.90
61201;DHT22;47065;52.898;6.992;2023-04-22T00:15:11;11.70;99.90
61201;DHT22;47065;52.898;6.992;2023-04-22T00:17:37;11.60;99.90
61201;DHT22;47065;52.898;6.992;2023-04-22T00:20:03;11.60;99.90
61201;DHT22;47065;52.898;6.992;2023-04-22T00:22:29;11.50;99.90
61201;DHT22;47065;52.898;6.992;2023-04-22T00:24:54;11.50;99.90
61201;DHT22;47065;52.898;6.992;2023-04-22T00:27:20;11.40;99.90
61201;DHT22;47065;52.898;6.992;2023-04-22T00:29:45;11.40;99.90
61201;DHT22;47065;52.898;6.992;2023-04-22T00:32:11;11.40;99.90
61201;DHT22;47065;52.898;6.992;2023-04-22T00:34:36;11.30;99.90
61201;DHT22;47065;52.898;6.992;2023-04-22T00:37:02;11.30;99.90
61201;DHT22;47065;52.898;6.992;2023-04-22T00:39:28;11.30;99.90
61201;DHT22;47065;52.898;6.992;2023-04-22T00:41:54;11.20;99.90
61201;DHT22;47065;52.898;6.992;2023-04-22T00:44:20;11.20;99.90
61201;DHT22;47065;52.898;6.992;2023-04-22T00:46:47;11.10;99.90
61201;DHT22;47065;52.898;6.992;2023-04-22T00:49:14;11.10;99.90
61201;DHT22;47065;52.898;6.992;2023-04-22T00:51:40;11.10;99.90
61201;DHT22;47065;52.898;6.992;2023-04-22T00:54:05;11.00;99.90
61201;DHT22;47065;52.898;6.992;2023-04-22T00:56:32;11.00;99.90
61201;DHT22;47065;52.898;6.992;2023-04-22T00:59:00;11.00;99.90
61201;DHT22;47065;52.898;6.992;2023-04-22T01:01:26;11.00;99.90
61201;DHT22;47065;52.898;6.992;2023-04-22T01:03:52;11.00;99.90
61201;DHT22;47065;52.898;6.992;2023-04-22T01:06:18;11.00;99.90
61201;DHT22;47065;52.898;6.992;2023-04-22T01:08:47;11.00;99.90
61201;DHT22;47065;52.898;6.992;2023-04-22T01:11:13;10.90;99.90
61201;DHT22;47065;52.898;6.992;2023-04-22T01:13:38;10.90;99.90
61201;DHT22;47065;52.898;6.992;2023-04-22T01:16:05;10.80;99.90
61201;DHT22;47065;52.898;6.992;2023-04-22T01:18:34;10.80;99.90
61201;DHT22;47065;52.898;6.992;2023-04-22T01:21:00;10.80;99.90
61201;DHT22;47065;52.898;6.992;2023-04-22T01:23:27;10.70;99.90
61201;DHT22;47065;52.898;6.992;2023-04-22T01:25:56;10.70;99.90
61201;DHT22;47065;52.898;6.992;2023-04-22T01:28:22;10.70;99.90
61201;DHT22;47065;52.898;6.992;2023-04-22T01:30:48;10.60;99.90
61201;DHT22;47065;52.898;6.992;2023-04-22T01:33:15;10.50;99.90
61201;DHT22;47065;52.898;6.992;2023-04-22T01:35:40;10.40;99.90
61201;DHT22;47065;52.898;6.992;2023-04-22T01:38:08;10.40;99.90
61201;DHT22;47065;52.898;6.992;2023-04-22T01:40:34;10.30;99.90
61201;DHT22;47065;52.898;6.992;2023-04-22T01:43:04;10.20;99.90
61201;DHT22;47065;52.898;6.992;2023-04-22T01:45:30;10.20;99.90
61201;DHT22;47065;52.898;6.992;2023-04-22T01:47:56;10.20;99.90
61201;DHT22;47065;52.898;6.992;2023-04-22T01:50:22;10.10;99.90
61201;DHT22;47065;52.898;6.992;2023-04-22T01:52:48;10.10;99.90
61201;DHT22;47065;52.898;6.992;2023-04-22T01:55:15;10.00;99.90
61201;DHT22;47065;52.898;6.992;2023-04-22T01:57:40;10.00;99.90
61201;DHT22;47065;52.898;6.992;2023-04-22T02:00:07;9.90;99.90
61201;DHT22;47065;52.898;6.992;2023-04-22T02:02:33;9.90;99.90
61201;DHT22;47065;52.898;6.992;2023-04-22T02:04:59;9.80;99.90
61201;DHT22;47065;52.898;6.992;2023-04-22T02:07:24;9.80;99.90
61201;DHT22;47065;52.898;6.992;2023-04-22T02:09:51;9.70;99.90
61201;DHT22;47065;52.898;6.992;2023-04-22T02:12:16;9.70;99.90
61201;DHT22;47065;52.898;6.992;2023-04-22T02:14:42;9.60;99.90
61201;DHT22;47065;52.898;6.992;2023-04-22T02:17:08;9.60;99.90
61201;DHT22;47065;52.898;6.992;2023-04-22T02:19:33;9.50;99.90
61201;DHT22;47065;52.898;6.992;2023-04-22T02:21:59;9.40;99.90
61201;DHT22;47065;52.898;6.992;2023-04-22T02:24:25;9.40;99.90
61201;DHT22;47065;52.898;6.992;2023-04-22T02:26:51;9.30;99.90
61201;DHT22;47065;52.898;6.992;2023-04-22T02:29:16;9.30;99.90
61201;DHT22;47065;52.898;6.992;2023-04-22T02:31:42;9.30;99.90
61201;DHT22;47065;52.898;6.992;2023-04-22T02:34:08;9.20;99.90
61201;DHT22;47065;52.898;6.992;2023-04-22T02:36:33;9.30;99.90
61201;DHT22;47065;52.898;6.992;2023-04-22T02:39:02;9.30;99.90
61201;DHT22;47065;52.898;6.992;2023-04-22T02:41:28;9.30;99.90
61201;DHT22;47065;52.898;6.992;2023-04-22T02:43:54;9.30;99.90
61201;DHT22;47065;52.898;6.992;2023-04-22T02:46:20;9.20;99.90
61201;DHT22;47065;52.898;6.992;2023-04-22T02:48:45;9.30;99.90
61201;DHT22;47065;52.898;6.992;2023-04-22T02:51:11;9.10;99.90
61201;DHT22;47065;52.898;6.992;2023-04-22T02:53:37;9.20;99.90
61201;DHT22;47065;52.898;6.992;2023-04-22T02:56:03;9.10;99.90
61201;DHT22;47065;52.898;6.992;2023-04-22T02:58:28;9.10;99.90
61201;DHT22;47065;52.898;6.992;2023-04-22T03:00:54;9.10;99.90
61201;DHT22;47065;52.898;6.992;2023-04-22T03:03:21;9.10;99.90
61201;DHT22;47065;52.898;6.992;2023-04-22T03:05:47;9.10;99.90
61201;DHT22;47065;52.898;6.992;2023-04-22T03:08:12;9.10;99.90
61201;DHT22;47065;52.898;6.992;2023-04-22T03:10:38;9.10;99.90
61201;DHT22;47065;52.898;6.992;2023-04-22T03:13:03;9.00;99.90
61201;DHT22;47065;52.898;6.992;2023-04-22T03:15:29;9.00;99.90
61201;DHT22;47065;52.898;6.992;2023-04-22T03:17:55;8.90;99.90
61201;DHT22;47065;52.898;6.992;2023-04-22T03:20:21;8.90;99.90
61201;DHT22;47065;52.898;6.992;2023-04-22T03:22:46;8.80;99.90
61201;DHT22;47065;52.898;6.992;2023-04-22T03:25:12;8.80;99.90
61201;DHT22;47065;52.898;6.992;2023-04-22T03:27:38;8.80;99.90
61201;DHT22;47065;52.898;6.992;2023-04-22T03:30:04;8.80;99.90
61201;DHT22;47065;52.898;6.992;2023-04-22T03:32:30;8.80;99.90
61201;DHT22;47065;52.898;6.992;2023-04-22T03:34:55;8.80;99.90
61201;DHT22;47065;52.898;6.992;2023-04-22T03:37:21;8.70;99.90
61201;DHT22;47065;52.898;6.992;2023-04-22T03:39:47;8.70;99.90
61201;DHT22;47065;52.898;6.992;2023-04-22T03:42:13;8.70;99.90
61201;DHT22;47065;52.898;6.992;2023-04-22T03:44:39;8.70;99.90
61201;DHT22;47065;52.898;6.992;2023-04-22T03:47:05;8.70;99.90
61201;DHT22;47065;52.898;6.992;2023-04-22T03:49:30;8.60;99.90
61201;DHT22;47065;52.898;6.992;2023-04-22T03:51:56;8.70;99.90
61201;DHT22;47065;52.898;6.992;2023-04-22T03:54:23;8.60;99.90
61201;DHT22;47065;52.898;6.992;2023-04-22T03:56:48;8.60;99.90
61201;DHT22;47065;52.898;6.992;2023-04-22T03:59:14;8.50;99.90
61201;DHT22;47065;52.898;6.992;2023-04-22T04:01:40;8.50;99.90
61201;DHT22;47065;52.898;6.992;2023-04-22T04:04:05;8.50;99.90
61201;DHT22;47065;52.898;6.992;2023-04-22T04:06:31;8.50;99.90
61201;DHT22;47065;52.898;6.992;2023-04-22T04:08:57;8.50;99.90
61201;DHT22;47065;52.898;6.992;2023-04-22T04:11:23;8.50;99.90
61201;DHT22;47065;52.898;6.992;2023-04-22T04:13:49;8.40;99.90
61201;DHT22;47065;52.898;6.992;2023-04-22T04:16:15;8.40;99.90
61201;DHT22;47065;52.898;6.992;2023-04-22T04:18:41;8.40;99.90
61201;DHT22;47065;52.898;6.992;2023-04-22T04:21:06;8.40;99.90
61201;DHT22;47065;52.898;6.992;2023-04-22T04:23:32;8.40;99.90
61201;DHT22;47065;52.898;6.992;2023-04-22T04:25:58;8.40;99.90
61201;DHT22;47065;52.898;6.992;2023-04-22T04:28:27;8.40;99.90
61201;DHT22;47065;52.898;6.992;2023-04-22T04:30:56;8.40;99.90
61201;DHT22;47065;52.898;6.992;2023-04-22T04:33:22;8.40;99.90
61201;DHT22;47065;52.898;6.992;2023-04-22T04:35:48;8.40;99.90
61201;DHT22;47065;52.898;6.992;2023-04-22T04:38:13;8.40;99.90
61201;DHT22;47065;52.898;6.992;2023-04-22T04:40:39;8.40;99.90
61201;DHT22;47065;52.898;6.992;2023-04-22T04:43:05;8.40;99.90
61201;DHT22;47065;52.898;6.992;2023-04-22T04:45:33;8.40;99.90
61201;DHT22;47065;52.898;6.992;2023-04-22T04:48:01;8.40;99.90
61201;DHT22;47065;52.898;6.992;2023-04-22T04:50:27;8.40;99.90
61201;DHT22;47065;52.898;6.992;2023-04-22T04:52:53;8.40;99.90
61201;DHT22;47065;52.898;6.992;2023-04-22T04:55:19;8.40;99.90
61201;DHT22;47065;52.898;6.992;2023-04-22T04:57:44;8.40;99.90
61201;DHT22;47065;52.898;6.992;2023-04-22T05:00:11;8.40;99.90
61201;DHT22;47065;52.898;6.992;2023-04-22T05:02:38;8.40;99.90
61201;DHT22;47065;52.898;6.992;2023-04-22T05:05:04;8.40;99.90
61201;DHT22;47065;52.898;6.992;2023-04-22T05:07:31;8.50;99.90
61201;DHT22;47065;52.898;6.992;2023-04-22T05:09:56;8.50;99.90
61201;DHT22;47065;52.898;6.992;2023-04-22T05:12:22;8.50;99.90
61201;DHT22;47065;52.898;6.992;2023-04-22T05:14:48;8.50;99.90
61201;DHT22;47065;52.898;6.992;2023-04-22T05:17:13;8.60;99.90
61201;DHT22;47065;52.898;6.992;2023-04-22T05:19:39;8.60;99.90
61201;DHT22;47065;52.898;6.992;2023-04-22T05:22:06;8.60;99.90
61201;DHT22;47065;52.898;6.992;2023-04-22T05:24:32;8.60;99.90
61201;DHT22;47065;52.898;6.992;2023-04-22T05:26:58;8.60;99.90
61201;DHT22;47065;52.898;6.992;2023-04-22T05:29:24;8.70;99.90
61201;DHT22;47065;52.898;6.992;2023-04-22T05:31:49;8.70;99.90
61201;DHT22;47065;52.898;6.992;2023-04-22T05:34:15;8.70;99.90
61201;DHT22;47065;52.898;6.992;2023-04-22T05:36:41;8.80;99.90
61201;DHT22;47065;52.898;6.992;2023-04-22T05:39:07;8.80;99.90
61201;DHT22;47065;52.898;6.992;2023-04-22T05:41:32;8.80;99.90
61201;DHT22;47065;52.898;6.992;2023-04-22T05:43:58;8.90;99.90
61201;DHT22;47065;52.898;6.992;2023-04-22T05:46:24;9.00;99.90
61201;DHT22;47065;52.898;6.992;2023-04-22T05:48:50;9.10;99.90
61201;DHT22;47065;52.898;6.992;2023-04-22T05:51:15;9.10;99.90
61201;DHT22;47065;52.898;6.992;2023-04-22T05:53:41;9.20;99.90
61201;DHT22;47065;52.898;6.992;2023-04-22T05:56:07;9.30;99.90
61201;DHT22;47065;52.898;6.992;2023-04-22T05:58:32;9.30;99.90
61201;DHT22;47065;52.898;6.992;2023-04-22T06:00:58;9.40;99.90
61201;DHT22;47065;52.898;6.992;2023-04-22T06:03:23;9.50;99.90
61201;DHT22;47065;52.898;6.992;2023-04-22T06:05:49;9.50;99.90
61201;DHT22;47065;52.898;6.992;2023-04-22T06:08:15;9.60;99.90
61201;DHT22;47065;52.898;6.992;2023-04-22T06:10:40;9.60;99.90
61201;DHT22;47065;52.898;6.992;2023-04-22T06:13:06;9.70;99.90
61201;DHT22;47065;52.898;6.992;2023-04-22T06:15:33;9.70;99.90
61201;DHT22;47065;52.898;6.992;2023-04-22T06:17:59;9.80;99.90
61201;DHT22;47065;52.898;6.992;2023-04-22T06:20:25;9.90;99.90
61201;DHT22;47065;52.898;6.992;2023-04-22T06:22:50;9.90;99.90
61201;DHT22;47065;52.898;6.992;2023-04-22T06:25:16;10.00;99.90
61201;DHT22;47065;52.898;6.992;2023-04-22T06:27:41;10.00;99.90
61201;DHT22;47065;52.898;6.992;2023-04-22T06:30:07;10.10;99.90
61201;DHT22;47065;52.898;6.992;2023-04-22T06:32:35;10.20;99.90
61201;DHT22;47065;52.898;6.992;2023-04-22T06:35:00;10.20;99.90
61201;DHT22;47065;52.898;6.992;2023-04-22T06:37:26;10.30;99.90
61201;DHT22;47065;52.898;6.992;2023-04-22T06:39:52;10.30;99.90
61201;DHT22;47065;52.898;6.992;2023-04-22T06:42:17;10.40;99.90
61201;DHT22;47065;52.898;6.992;2023-04-22T06:44:43;10.40;99.90
61201;DHT22;47065;52.898;6.992;2023-04-22T06:47:09;10.50;99.90
61201;DHT22;47065;52.898;6.992;2023-04-22T06:49:34;10.60;99.90
61201;DHT22;47065;52.898;6.992;2023-04-22T06:52:03;10.60;99.90
61201;DHT22;47065;52.898;6.992;2023-04-22T06:54:28;10.70;99.90
61201;DHT22;47065;52.898;6.992;2023-04-22T06:56:55;10.80;99.90
61201;DHT22;47065;52.898;6.992;2023-04-22T06:59:22;10.80;99.90
61201;DHT22;47065;52.898;6.992;2023-04-22T07:01:47;10.90;99.90
61201;DHT22;47065;52.898;6.992;2023-04-22T07:04:13;11.00;99.90
61201;DHT22;47065;52.898;6.992;2023-04-22T07:06:38;11.10;99.90
61201;DHT22;47065;52.898;6.992;2023-04-22T07:09:04;11.10;99.90
61201;DHT22;47065;52.898;6.992;2023-04-22T07:11:30;11.20;99.90
61201;DHT22;47065;52.898;6.992;2023-04-22T07:13:56;11.30;99.90
61201;DHT22;47065;52.898;6.992;2023-04-22T07:16:22;11.40;99.90
61201;DHT22;47065;52.898;6.992;2023-04-22T07:18:47;11.40;99.90
61201;DHT22;47065;52.898;6.992;2023-04-22T07:21:13;11.50;99.90
61201;DHT22;47065;52.898;6.992;2023-04-22T07:23:39;11.60;99.90
61201;DHT22;47065;52.898;6.992;2023-04-22T07:26:04;11.60;99.90
61201;DHT22;47065;52.898;6.992;2023-04-22T07:28:30;11.70;99.90
61201;DHT22;47065;52.898;6.992;2023-04-22T07:30:56;11.80;99.90
61201;DHT22;47065;52.898;6.992;2023-04-22T07:33:21;11.80;99.90
61201;DHT22;47065;52.898;6.992;2023-04-22T07:35:47;11.90;99.90
61201;DHT22;47065;52.898;6.992;2023-04-22T07:38:13;11.90;99.90
61201;DHT22;47065;52.898;6.992;2023-04-22T07:40:39;12.10;99.90
61201;DHT22;47065;52.898;6.992;2023-04-22T07:43:05;12.10;99.90
61201;DHT22;47065;52.898;6.992;2023-04-22T07:45:31;12.20;99.90
61201;DHT22;47065;52.898;6.992;2023-04-22T07:47:57;12.30;99.90
61201;DHT22;47065;52.898;6.992;2023-04-22T07:50:22;12.40;99.90
61201;DHT22;47065;52.898;6.992;2023-04-22T07:52:48;12.50;99.90
61201;DHT22;47065;52.898;6.992;2023-04-22T07:55:14;12.60;99.90
61201;DHT22;47065;52.898;6.992;2023-04-22T07:57:39;12.70;99.90
61201;DHT22;47065;52.898;6.992;2023-04-22T08:00:06;12.80;99.90
61201;DHT22;47065;52.898;6.992;2023-04-22T08:02:32;12.90;99.90
61201;DHT22;47065;52.898;6.992;2023-04-22T08:04:57;13.00;99.90
61201;DHT22;47065;52.898;6.992;2023-04-22T08:07:24;13.20;99.90
61201;DHT22;47065;52.898;6.992;2023-04-22T08:09:49;13.30;99.90
61201;DHT22;47065;52.898;6.992;2023-04-22T08:12:15;13.40;99.90
61201;DHT22;47065;52.898;6.992;2023-04-22T08:14:41;13.60;99.90
61201;DHT22;47065;52.898;6.992;2023-04-22T08:17:06;13.70;99.90
61201;DHT22;47065;52.898;6.992;2023-04-22T08:19:32;13.90;99.90
61201;DHT22;47065;52.898;6.992;2023-04-22T08:21:57;14.00;99.90
61201;DHT22;47065;52.898;6.992;2023-04-22T08:24:23;14.30;99.90
61201;DHT22;47065;52.898;6.992;2023-04-22T08:26:49;14.50;99.90
61201;DHT22;47065;52.898;6.992;2023-04-22T08:29:15;14.80;99.90
61201;DHT22;47065;52.898;6.992;2023-04-22T08:31:41;15.00;99.90
61201;DHT22;47065;52.898;6.992;2023-04-22T08:34:06;15.30;99.90
61201;DHT22;47065;52.898;6.992;2023-04-22T08:36:32;15.60;99.90
61201;DHT22;47065;52.898;6.992;2023-04-22T08:38:58;15.80;99.90
61201;DHT22;47065;52.898;6.992;2023-04-22T08:41:25;16.10;99.90
61201;DHT22;47065;52.898;6.992;2023-04-22T08:43:52;16.50;99.90
61201;DHT22;47065;52.898;6.992;2023-04-22T08:46:18;16.90;99.90
61201;DHT22;47065;52.898;6.992;2023-04-22T08:48:49;17.60;99.90
61201;DHT22;47065;52.898;6.992;2023-04-22T08:51:16;18.50;99.90
61201;DHT22;47065;52.898;6.992;2023-04-22T08:53:45;19.50;99.90
61201;DHT22;47065;52.898;6.992;2023-04-22T08:56:14;20.40;99.90
61201;DHT22;47065;52.898;6.992;2023-04-22T08:58:40;21.30;99.90
61201;DHT22;47065;52.898;6.992;2023-04-22T09:01:07;22.20;99.90
61201;DHT22;47065;52.898;6.992;2023-04-22T09:03:35;23.20;99.90
61201;DHT22;47065;52.898;6.992;2023-04-22T09:06:04;24.20;99.90
61201;DHT22;47065;52.898;6.992;2023-04-22T09:08:31;25.00;98.00
61201;DHT22;47065;52.898;6.992;2023-04-22T09:10:57;25.30;90.50
61201;DHT22;47065;52.898;6.992;2023-04-22T09:13:24;25.60;92.40
61201;DHT22;47065;52.898;6.992;2023-04-22T09:15:50;26.10;88.50
61201;DHT22;47065;52.898;6.992;2023-04-22T09:18:17;26.70;79.80
61201;DHT22;47065;52.898;6.992;2023-04-22T09:20:47;27.30;69.50
61201;DHT22;47065;52.898;6.992;2023-04-22T09:23:13;27.70;67.40
61201;DHT22;47065;52.898;6.992;2023-04-22T09:25:39;28.30;66.00
61201;DHT22;47065;52.898;6.992;2023-04-22T09:28:06;28.50;63.80
61201;DHT22;47065;52.898;6.992;2023-04-22T09:30:35;28.50;62.20
61201;DHT22;47065;52.898;6.992;2023-04-22T09:33:04;28.60;61.00
61201;DHT22;47065;52.898;6.992;2023-04-22T09:35:32;28.40;60.10
61201;DHT22;47065;52.898;6.992;2023-04-22T09:38:01;27.50;59.30
61201;DHT22;47065;52.898;6.992;2023-04-22T09:40:28;26.80;60.20
61201;DHT22;47065;52.898;6.992;2023-04-22T09:42:56;26.50;59.00
61201;DHT22;47065;52.898;6.992;2023-04-22T09:45:34;26.30;60.70
61201;DHT22;47065;52.898;6.992;2023-04-22T09:50:27;26.30;58.30
61201;DHT22;47065;52.898;6.992;2023-04-22T09:53:01;26.20;59.30
61201;DHT22;47065;52.898;6.992;2023-04-22T09:55:30;26.00;58.20
61201;DHT22;47065;52.898;6.992;2023-04-22T09:57:57;25.60;57.50
61201;DHT22;47065;52.898;6.992;2023-04-22T10:00:28;24.80;58.30
61201;DHT22;47065;52.898;6.992;2023-04-22T10:02:54;24.00;59.90
61201;DHT22;47065;52.898;6.992;2023-04-22T10:05:19;23.50;62.10
61201;DHT22;47065;52.898;6.992;2023-04-22T10:07:45;23.30;63.30
61201;DHT22;47065;52.898;6.992;2023-04-22T10:10:12;23.30;64.60
61201;DHT22;47065;52.898;6.992;2023-04-22T10:12:38;23.20;63.80
61201;DHT22;47065;52.898;6.992;2023-04-22T10:15:04;23.10;63.90
61201;DHT22;47065;52.898;6.992;2023-04-22T10:17:36;23.10;63.60
61201;DHT22;47065;52.898;6.992;2023-04-22T10:20:05;22.90;64.70
61201;DHT22;47065;52.898;6.992;2023-04-22T10:22:34;22.80;65.30
61201;DHT22;47065;52.898;6.992;2023-04-22T10:25:00;22.80;66.90
61201;DHT22;47065;52.898;6.992;2023-04-22T10:27:26;22.80;65.90
61201;DHT22;47065;52.898;6.992;2023-04-22T10:29:51;22.70;64.80
61201;DHT22;47065;52.898;6.992;2023-04-22T10:34:46;22.40;64.50
61201;DHT22;47065;52.898;6.992;2023-04-22T10:37:13;22.30;65.00
61201;DHT22;47065;52.898;6.992;2023-04-22T10:39:40;22.20;67.30
61201;DHT22;47065;52.898;6.992;2023-04-22T10:42:12;22.30;68.70
61201;DHT22;47065;52.898;6.992;2023-04-22T10:44:48;22.40;66.90
61201;DHT22;47065;52.898;6.992;2023-04-22T10:47:26;22.50;66.10
61201;DHT22;47065;52.898;6.992;2023-04-22T10:50:08;22.50;65.70
61201;DHT22;47065;52.898;6.992;2023-04-22T10:52:34;22.40;64.00
61201;DHT22;47065;52.898;6.992;2023-04-22T10:55:00;22.30;64.70
61201;DHT22;47065;52.898;6.992;2023-04-22T10:57:37;22.10;65.50
61201;DHT22;47065;52.898;6.992;2023-04-22T11:05:29;22.10;65.60
61201;DHT22;47065;52.898;6.992;2023-04-22T11:08:02;22.10;64.50
61201;DHT22;47065;52.898;6.992;2023-04-22T11:10:36;22.20;66.20
61201;DHT22;47065;52.898;6.992;2023-04-22T11:13:23;22.30;64.00
61201;DHT22;47065;52.898;6.992;2023-04-22T11:15:50;22.20;65.50
61201;DHT22;47065;52.898;6.992;2023-04-22T11:18:22;22.30;64.20
61201;DHT22;47065;52.898;6.992;2023-04-22T11:20:49;22.30;66.00
61201;DHT22;47065;52.898;6.992;2023-04-22T11:23:25;22.30;65.10
61201;DHT22;47065;52.898;6.992;2023-04-22T11:26:03;22.30;63.50
61201;DHT22;47065;52.898;6.992;2023-04-22T11:28:29;22.20;62.60
61201;DHT22;47065;52.898;6.992;2023-04-22T11:31:04;22.20;63.90
61201;DHT22;47065;52.898;6.992;2023-04-22T11:33:31;22.10;64.10
61201;DHT22;47065;52.898;6.992;2023-04-22T11:35:57;22.10;63.60
61201;DHT22;47065;52.898;6.992;2023-04-22T11:38:23;22.10;64.10
61201;DHT22;47065;52.898;6.992;2023-04-22T11:40:48;22.10;62.10
61201;DHT22;47065;52.898;6.992;2023-04-22T11:43:15;22.10;63.30
61201;DHT22;47065;52.898;6.992;2023-04-22T11:45:42;22.00;63.70
61201;DHT22;47065;52.898;6.992;2023-04-22T11:48:09;21.80;63.60
61201;DHT22;47065;52.898;6.992;2023-04-22T11:50:40;21.70;64.90
61201;DHT22;47065;52.898;6.992;2023-04-22T11:53:19;21.70;65.80
61201;DHT22;47065;52.898;6.992;2023-04-22T11:55:48;21.70;65.20
61201;DHT22;47065;52.898;6.992;2023-04-22T11:58:23;21.70;65.80
61201;DHT22;47065;52.898;6.992;2023-04-22T12:00:51;21.70;65.70
61201;DHT22;47065;52.898;6.992;2023-04-22T12:03:18;21.70;65.20
61201;DHT22;47065;52.898;6.992;2023-04-22T12:06:02;21.70;65.70
61201;DHT22;47065;52.898;6.992;2023-04-22T12:08:38;21.60;65.50
61201;DHT22;47065;52.898;6.992;2023-04-22T12:11:07;21.50;66.30
61201;DHT22;47065;52.898;6.992;2023-04-22T12:16:09;21.40;67.50
61201;DHT22;47065;52.898;6.992;2023-04-22T12:18:47;21.40;67.70
61201;DHT22;47065;52.898;6.992;2023-04-22T12:21:16;21.50;68.20
61201;DHT22;47065;52.898;6.992;2023-04-22T12:23:50;21.50;67.10
61201;DHT22;47065;52.898;6.992;2023-04-22T12:26:18;21.50;67.90
61201;DHT22;47065;52.898;6.992;2023-04-22T12:28:45;21.50;66.70
61201;DHT22;47065;52.898;6.992;2023-04-22T12:31:13;21.50;68.60
61201;DHT22;47065;52.898;6.992;2023-04-22T12:33:40;21.50;67.60
61201;DHT22;47065;52.898;6.992;2023-04-22T12:36:06;21.50;66.90
61201;DHT22;47065;52.898;6.992;2023-04-22T12:38:32;21.50;69.40
61201;DHT22;47065;52.898;6.992;2023-04-22T12:40:58;21.50;72.50
61201;DHT22;47065;52.898;6.992;2023-04-22T12:43:24;21.50;70.80
61201;DHT22;47065;52.898;6.992;2023-04-22T12:45:50;21.60;67.90
61201;DHT22;47065;52.898;6.992;2023-04-22T12:48:16;21.50;66.20
61201;DHT22;47065;52.898;6.992;2023-04-22T12:50:42;21.50;66.40
61201;DHT22;47065;52.898;6.992;2023-04-22T12:53:07;21.40;68.30
61201;DHT22;47065;52.898;6.992;2023-04-22T12:55:34;21.60;68.30
61201;DHT22;47065;52.898;6.992;2023-04-22T12:58:00;21.60;70.80
61201;DHT22;47065;52.898;6.992;2023-04-22T13:00:26;21.80;66.90
61201;DHT22;47065;52.898;6.992;2023-04-22T13:02:52;21.80;66.40
61201;DHT22;47065;52.898;6.992;2023-04-22T13:05:18;21.70;66.10
61201;DHT22;47065;52.898;6.992;2023-04-22T13:07:46;21.60;66.60
61201;DHT22;47065;52.898;6.992;2023-04-22T13:10:14;21.60;69.50
61201;DHT22;47065;52.898;6.992;2023-04-22T13:12:41;21.80;70.90
61201;DHT22;47065;52.898;6.992;2023-04-22T13:15:08;22.00;67.20
61201;DHT22;47065;52.898;6.992;2023-04-22T13:17:34;22.00;66.40
61201;DHT22;47065;52.898;6.992;2023-04-22T13:20:00;21.90;66.50
61201;DHT22;47065;52.898;6.992;2023-04-22T13:22:26;21.80;67.60
61201;DHT22;47065;52.898;6.992;2023-04-22T13:24:52;21.70;68.50
61201;DHT22;47065;52.898;6.992;2023-04-22T13:27:18;21.60;70.30
61201;DHT22;47065;52.898;6.992;2023-04-22T13:29:44;21.60;69.80
61201;DHT22;47065;52.898;6.992;2023-04-22T13:32:11;21.60;70.80
61201;DHT22;47065;52.898;6.992;2023-04-22T13:34:38;21.70;70.10
61201;DHT22;47065;52.898;6.992;2023-04-22T13:37:03;21.80;68.50
61201;DHT22;47065;52.898;6.992;2023-04-22T13:39:29;22.00;68.20
61201;DHT22;47065;52.898;6.992;2023-04-22T13:41:55;22.00;68.30
61201;DHT22;47065;52.898;6.992;2023-04-22T13:44:21;22.10;68.40
61201;DHT22;47065;52.898;6.992;2023-04-22T13:46:47;22.10;68.30
61201;DHT22;47065;52.898;6.992;2023-04-22T13:49:12;22.20;68.30
61201;DHT22;47065;52.898;6.992;2023-04-22T13:51:38;22.20;68.80
61201;DHT22;47065;52.898;6.992;2023-04-22T13:54:05;22.30;67.80
61201;DHT22;47065;52.898;6.992;2023-04-22T13:56:31;22.40;65.40
61201;DHT22;47065;52.898;6.992;2023-04-22T13:58:57;22.50;66.20
61201;DHT22;47065;52.898;6.992;2023-04-22T14:01:23;22.50;66.00
61201;DHT22;47065;52.898;6.992;2023-04-22T14:03:53;22.60;64.90
61201;DHT22;47065;52.898;6.992;2023-04-22T14:06:20;22.50;64.40
61201;DHT22;47065;52.898;6.992;2023-04-22T14:08:46;22.40;64.30
61201;DHT22;47065;52.898;6.992;2023-04-22T14:11:12;22.30;64.70
61201;DHT22;47065;52.898;6.992;2023-04-22T14:13:38;22.10;64.40
61201;DHT22;47065;52.898;6.992;2023-04-22T14:16:04;21.90;65.50
61201;DHT22;47065;52.898;6.992;2023-04-22T14:18:35;21.80;65.60
61201;DHT22;47065;52.898;6.992;2023-04-22T14:21:03;21.60;66.00
61201;DHT22;47065;52.898;6.992;2023-04-22T14:23:31;21.40;66.70
61201;DHT22;47065;52.898;6.992;2023-04-22T14:25:56;21.30;69.60
61201;DHT22;47065;52.898;6.992;2023-04-22T14:28:22;21.10;80.00
61201;DHT22;47065;52.898;6.992;2023-04-22T14:30:48;20.80;88.40
61201;DHT22;47065;52.898;6.992;2023-04-22T14:33:14;20.60;92.90
61201;DHT22;47065;52.898;6.992;2023-04-22T14:35:39;20.40;94.20
61201;DHT22;47065;52.898;6.992;2023-04-22T14:38:07;20.30;96.40
61201;DHT22;47065;52.898;6.992;2023-04-22T14:40:33;20.30;98.60
61201;DHT22;47065;52.898;6.992;2023-04-22T14:43:02;20.30;99.40
61201;DHT22;47065;52.898;6.992;2023-04-22T14:45:29;20.40;98.40
61201;DHT22;47065;52.898;6.992;2023-04-22T14:47:56;20.50;96.30
61201;DHT22;47065;52.898;6.992;2023-04-22T14:50:22;20.60;95.40
61201;DHT22;47065;52.898;6.992;2023-04-22T14:52:47;20.60;95.00
61201;DHT22;47065;52.898;6.992;2023-04-22T14:55:13;20.50;94.50
61201;DHT22;47065;52.898;6.992;2023-04-22T14:57:39;20.40;94.30
61201;DHT22;47065;52.898;6.992;2023-04-22T15:00:06;20.40;95.00
61201;DHT22;47065;52.898;6.992;2023-04-22T15:02:33;20.30;94.90
61201;DHT22;47065;52.898;6.992;2023-04-22T15:04:58;20.30;95.00
61201;DHT22;47065;52.898;6.992;2023-04-22T15:07:25;20.40;95.40
61201;DHT22;47065;52.898;6.992;2023-04-22T15:09:51;20.60;96.30
61201;DHT22;47065;52.898;6.992;2023-04-22T15:12:17;20.70;95.10
61201;DHT22;47065;52.898;6.992;2023-04-22T15:14:43;20.70;94.20
61201;DHT22;47065;52.898;6.992;2023-04-22T15:17:08;20.60;93.90
61201;DHT22;47065;52.898;6.992;2023-04-22T15:19:34;20.60;94.10
61201;DHT22;47065;52.898;6.992;2023-04-22T15:22:00;20.50;94.30
61201;DHT22;47065;52.898;6.992;2023-04-22T15:24:26;20.40;94.30
61201;DHT22;47065;52.898;6.992;2023-04-22T15:26:53;20.30;94.70
61201;DHT22;47065;52.898;6.992;2023-04-22T15:29:19;20.20;95.60
61201;DHT22;47065;52.898;6.992;2023-04-22T15:31:45;20.30;96.70
61201;DHT22;47065;52.898;6.992;2023-04-22T15:34:11;20.40;99.30
61201;DHT22;47065;52.898;6.992;2023-04-22T15:36:37;20.20;99.90
61201;DHT22;47065;52.898;6.992;2023-04-22T15:39:03;20.00;99.90
61201;DHT22;47065;52.898;6.992;2023-04-22T15:41:30;19.70;99.90
61201;DHT22;47065;52.898;6.992;2023-04-22T15:43:58;19.30;99.90